sensor_id;sensor_type;location;lat;lon;timestamp;P1;durP1;ratioP1;P2;durP2;ratioP2
75379;SDS011;65641;44.714;37.756;2023-12-20T00:00:40;4.40;;;1.95;;
75379;SDS011;65641;44.714;37.756;2023-12-20T00:01:44;2.72;;;1.38;;
75379;SDS011;65641;44.714;37.756;2023-12-20T00:02:47;2.72;;;1.67;;
75379;SDS011;65641;44.714;37.756;2023-12-20T00:03:51;2.55;;;1.65;;
75379;SDS011;65641;44.714;37.756;2023-12-20T00:04:54;2.60;;;1.50;;
75379;SDS011;65641;44.714;37.756;2023-12-20T00:05:58;2.33;;;1.48;;
75379;SDS011;65641;44.714;37.756;2023-12-20T00:07:01;3.63;;;1.70;;
75379;SDS011;65641;44.714;37.756;2023-12-20T00:08:05;2.30;;;1.52;;
75379;SDS011;65641;44.714;37.756;2023-12-20T00:09:09;3.50;;;1.80;;
75379;SDS011;65641;44.714;37.756;2023-12-20T00:10:12;2.47;;;1.98;;
75379;SDS011;65641;44.714;37.756;2023-12-20T00:11:16;2.88;;;1.75;;
75379;SDS011;65641;44.714;37.756;2023-12-20T00:12:19;2.78;;;1.48;;
75379;SDS011;65641;44.714;37.756;2023-12-20T00:13:22;2.88;;;1.83;;
75379;SDS011;65641;44.714;37.756;2023-12-20T00:14:26;3.38;;;1.60;;
75379;SDS011;65641;44.714;37.756;2023-12-20T00:15:30;2.10;;;1.60;;
75379;SDS011;65641;44.714;37.756;2023-12-20T00:16:34;2.17;;;1.23;;
75379;SDS011;65641;44.714;37.756;2023-12-20T00:17:37;2.40;;;1.70;;
75379;SDS011;65641;44.714;37.756;2023-12-20T00:18:41;2.47;;;1.52;;
75379;SDS011;65641;44.714;37.756;2023-12-20T00:19:44;2.25;;;1.40;;
75379;SDS011;65641;44.714;37.756;2023-12-20T00:20:47;2.42;;;1.50;;
75379;SDS011;65641;44.714;37.756;2023-12-20T00:21:51;2.63;;;1.65;;
75379;SDS011;65641;44.714;37.756;2023-12-20T00:22:55;2.83;;;1.63;;
75379;SDS011;65641;44.714;37.756;2023-12-20T00:24:03;3.15;;;1.90;;
75379;SDS011;65641;44.714;37.756;2023-12-20T00:25:06;2.28;;;1.25;;
75379;SDS011;65641;44.714;37.756;2023-12-20T00:26:11;2.92;;;1.60;;
75379;SDS011;65641;44.714;37.756;2023-12-20T00:27:14;2.92;;;1.73;;
75379;SDS011;65641;44.714;37.756;2023-12-20T00:28:18;2.15;;;1.25;;
75379;SDS011;65641;44.714;37.756;2023-12-20T00:29:21;3.05;;;1.70;;
75379;SDS011;65641;44.714;37.756;2023-12-20T00:30:24;2.25;;;1.30;;
75379;SDS011;65641;44.714;37.756;2023-12-20T00:31:28;3.42;;;1.48;;
75379;SDS011;65641;44.714;37.756;2023-12-20T00:32:32;1.90;;;1.10;;
75379;SDS011;65641;44.714;37.756;2023-12-20T00:33:35;2.45;;;1.58;;
75379;SDS011;65641;44.714;37.756;2023-12-20T00:34:39;2.78;;;1.42;;
75379;SDS011;65641;44.714;37.756;2023-12-20T00:35:43;2.30;;;1.48;;
75379;SDS011;65641;44.714;37.756;2023-12-20T00:36:46;2.40;;;1.23;;
75379;SDS011;65641;44.714;37.756;2023-12-20T00:37:50;3.03;;;1.38;;
75379;SDS011;65641;44.714;37.756;2023-12-20T00:38:53;2.38;;;1.20;;
75379;SDS011;65641;44.714;37.756;2023-12-20T00:39:56;1.70;;;1.20;;
75379;SDS011;65641;44.714;37.756;2023-12-20T00:41:00;2.03;;;1.48;;
75379;SDS011;65641;44.714;37.756;2023-12-20T00:42:03;2.05;;;0.80;;
75379;SDS011;65641;44.714;37.756;2023-12-20T00:43:07;2.58;;;1.13;;
75379;SDS011;65641;44.714;37.756;2023-12-20T00:44:10;3.20;;;1.45;;
75379;SDS011;65641;44.714;37.756;2023-12-20T00:45:14;2.10;;;1.13;;
75379;SDS011;65641;44.714;37.756;2023-12-20T00:46:17;1.85;;;1.08;;
75379;SDS011;65641;44.714;37.756;2023-12-20T00:47:22;3.33;;;1.40;;
75379;SDS011;65641;44.714;37.756;2023-12-20T00:48:26;2.38;;;1.48;;
75379;SDS011;65641;44.714;37.756;2023-12-20T00:49:30;2.50;;;1.33;;
75379;SDS011;65641;44.714;37.756;2023-12-20T00:50:33;2.10;;;1.33;;
75379;SDS011;65641;44.714;37.756;2023-12-20T00:51:37;2.10;;;1.38;;
75379;SDS011;65641;44.714;37.756;2023-12-20T00:52:41;2.13;;;1.40;;
75379;SDS011;65641;44.714;37.756;2023-12-20T00:53:44;2.25;;;1.33;;
75379;SDS011;65641;44.714;37.756;2023-12-20T00:55:55;2.05;;;1.15;;
75379;SDS011;65641;44.714;37.756;2023-12-20T00:56:59;1.92;;;1.40;;
75379;SDS011;65641;44.714;37.756;2023-12-20T00:58:02;2.00;;;1.30;;
75379;SDS011;65641;44.714;37.756;2023-12-20T00:59:05;1.60;;;0.93;;
75379;SDS011;65641;44.714;37.756;2023-12-20T01:00:09;1.98;;;1.30;;
75379;SDS011;65641;44.714;37.756;2023-12-20T01:01:13;2.40;;;1.42;;
75379;SDS011;65641;44.714;37.756;2023-12-20T01:02:18;1.98;;;1.10;;
75379;SDS011;65641;44.714;37.756;2023-12-20T01:03:22;3.35;;;1.15;;
75379;SDS011;65641;44.714;37.756;2023-12-20T01:04:26;1.83;;;1.20;;
75379;SDS011;65641;44.714;37.756;2023-12-20T01:05:30;2.38;;;1.23;;
75379;SDS011;65641;44.714;37.756;2023-12-20T01:06:33;2.17;;;1.02;;
75379;SDS011;65641;44.714;37.756;2023-12-20T01:07:36;2.08;;;1.20;;
75379;SDS011;65641;44.714;37.756;2023-12-20T01:08:40;1.85;;;0.90;;
75379;SDS011;65641;44.714;37.756;2023-12-20T01:09:43;2.70;;;1.58;;
75379;SDS011;65641;44.714;37.756;2023-12-20T01:10:46;2.05;;;1.00;;
75379;SDS011;65641;44.714;37.756;2023-12-20T01:11:50;1.60;;;1.10;;
75379;SDS011;65641;44.714;37.756;2023-12-20T01:12:53;2.42;;;1.20;;
75379;SDS011;65641;44.714;37.756;2023-12-20T01:13:57;1.95;;;1.10;;
75379;SDS011;65641;44.714;37.756;2023-12-20T01:15:00;1.50;;;0.82;;
75379;SDS011;65641;44.714;37.756;2023-12-20T01:16:06;1.95;;;0.93;;
75379;SDS011;65641;44.714;37.756;2023-12-20T01:17:11;1.40;;;0.88;;
75379;SDS011;65641;44.714;37.756;2023-12-20T01:18:16;1.83;;;0.90;;
75379;SDS011;65641;44.714;37.756;2023-12-20T01:19:19;3.15;;;1.60;;
75379;SDS011;65641;44.714;37.756;2023-12-20T01:20:23;2.13;;;1.30;;
75379;SDS011;65641;44.714;37.756;2023-12-20T01:21:26;1.92;;;1.38;;
75379;SDS011;65641;44.714;37.756;2023-12-20T01:22:30;2.33;;;1.52;;
75379;SDS011;65641;44.714;37.756;2023-12-20T01:23:33;2.45;;;1.42;;
75379;SDS011;65641;44.714;37.756;2023-12-20T01:24:37;1.95;;;1.10;;
75379;SDS011;65641;44.714;37.756;2023-12-20T01:25:40;2.08;;;1.23;;
75379;SDS011;65641;44.714;37.756;2023-12-20T01:26:44;2.78;;;1.45;;
75379;SDS011;65641;44.714;37.756;2023-12-20T01:27:47;2.03;;;1.10;;
75379;SDS011;65641;44.714;37.756;2023-12-20T01:28:51;2.08;;;1.25;;
75379;SDS011;65641;44.714;37.756;2023-12-20T01:29:54;2.13;;;1.13;;
75379;SDS011;65641;44.714;37.756;2023-12-20T01:30:58;2.22;;;1.08;;
75379;SDS011;65641;44.714;37.756;2023-12-20T01:32:02;1.83;;;1.00;;
75379;SDS011;65641;44.714;37.756;2023-12-20T01:33:05;2.15;;;1.10;;
75379;SDS011;65641;44.714;37.756;2023-12-20T01:34:09;2.08;;;0.95;;
75379;SDS011;65641;44.714;37.756;2023-12-20T01:35:12;1.98;;;0.95;;
75379;SDS011;65641;44.714;37.756;2023-12-20T01:36:16;2.00;;;1.38;;
75379;SDS011;65641;44.714;37.756;2023-12-20T01:37:19;2.00;;;1.80;;
75379;SDS011;65641;44.714;37.756;2023-12-20T01:38:23;2.20;;;1.23;;
75379;SDS011;65641;44.714;37.756;2023-12-20T01:39:26;2.20;;;1.38;;
75379;SDS011;65641;44.714;37.756;2023-12-20T01:40:31;2.53;;;1.48;;
75379;SDS011;65641;44.714;37.756;2023-12-20T01:41:34;2.60;;;0.93;;
75379;SDS011;65641;44.714;37.756;2023-12-20T01:42:38;2.33;;;1.00;;
75379;SDS011;65641;44.714;37.756;2023-12-20T01:43:41;2.38;;;1.02;;
75379;SDS011;65641;44.714;37.756;2023-12-20T01:44:53;2.00;;;1.05;;
75379;SDS011;65641;44.714;37.756;2023-12-20T01:45:59;2.67;;;1.20;;
75379;SDS011;65641;44.714;37.756;2023-12-20T01:47:04;1.95;;;1.15;;
75379;SDS011;65641;44.714;37.756;2023-12-20T01:48:08;2.17;;;1.00;;
75379;SDS011;65641;44.714;37.756;2023-12-20T01:49:13;2.10;;;1.00;;
75379;SDS011;65641;44.714;37.756;2023-12-20T01:50:18;2.35;;;0.98;;
75379;SDS011;65641;44.714;37.756;2023-12-20T01:51:22;2.35;;;1.23;;
75379;SDS011;65641;44.714;37.756;2023-12-20T01:52:26;2.47;;;1.23;;
75379;SDS011;65641;44.714;37.756;2023-12-20T01:53:30;2.08;;;1.00;;
75379;SDS011;65641;44.714;37.756;2023-12-20T01:54:35;2.00;;;0.93;;
75379;SDS011;65641;44.714;37.756;2023-12-20T01:55:39;1.98;;;1.30;;
75379;SDS011;65641;44.714;37.756;2023-12-20T01:56:43;2.13;;;1.00;;
75379;SDS011;65641;44.714;37.756;2023-12-20T01:57:46;1.67;;;1.00;;
75379;SDS011;65641;44.714;37.756;2023-12-20T01:58:51;1.70;;;0.75;;
75379;SDS011;65641;44.714;37.756;2023-12-20T01:59:54;1.65;;;1.17;;
75379;SDS011;65641;44.714;37.756;2023-12-20T02:00:59;2.08;;;1.27;;
75379;SDS011;65641;44.714;37.756;2023-12-20T02:02:03;1.83;;;0.93;;
75379;SDS011;65641;44.714;37.756;2023-12-20T02:03:07;2.50;;;0.93;;
75379;SDS011;65641;44.714;37.756;2023-12-20T02:04:11;2.42;;;1.10;;
75379;SDS011;65641;44.714;37.756;2023-12-20T02:05:15;1.52;;;0.77;;
75379;SDS011;65641;44.714;37.756;2023-12-20T02:06:20;1.70;;;0.90;;
75379;SDS011;65641;44.714;37.756;2023-12-20T02:07:25;1.85;;;0.77;;
75379;SDS011;65641;44.714;37.756;2023-12-20T02:08:29;2.17;;;0.98;;
75379;SDS011;65641;44.714;37.756;2023-12-20T02:09:33;1.88;;;0.80;;
75379;SDS011;65641;44.714;37.756;2023-12-20T02:10:36;1.85;;;1.17;;
75379;SDS011;65641;44.714;37.756;2023-12-20T02:11:40;1.90;;;1.45;;
75379;SDS011;65641;44.714;37.756;2023-12-20T02:12:44;2.00;;;1.15;;
75379;SDS011;65641;44.714;37.756;2023-12-20T02:13:48;1.65;;;0.80;;
75379;SDS011;65641;44.714;37.756;2023-12-20T02:14:51;2.38;;;1.35;;
75379;SDS011;65641;44.714;37.756;2023-12-20T02:15:55;1.65;;;0.63;;
75379;SDS011;65641;44.714;37.756;2023-12-20T02:16:59;2.08;;;0.90;;
75379;SDS011;65641;44.714;37.756;2023-12-20T02:18:03;1.70;;;0.95;;
75379;SDS011;65641;44.714;37.756;2023-12-20T02:19:08;1.33;;;0.70;;
75379;SDS011;65641;44.714;37.756;2023-12-20T02:20:17;1.90;;;1.10;;
75379;SDS011;65641;44.714;37.756;2023-12-20T02:21:33;1.73;;;1.02;;
75379;SDS011;65641;44.714;37.756;2023-12-20T02:22:37;1.90;;;0.82;;
75379;SDS011;65641;44.714;37.756;2023-12-20T02:23:41;2.08;;;1.05;;
75379;SDS011;65641;44.714;37.756;2023-12-20T02:24:44;1.50;;;0.77;;
75379;SDS011;65641;44.714;37.756;2023-12-20T02:25:48;1.75;;;1.10;;
75379;SDS011;65641;44.714;37.756;2023-12-20T02:26:51;1.92;;;0.70;;
75379;SDS011;65641;44.714;37.756;2023-12-20T02:27:54;1.90;;;0.82;;
75379;SDS011;65641;44.714;37.756;2023-12-20T02:28:58;2.40;;;0.93;;
75379;SDS011;65641;44.714;37.756;2023-12-20T02:30:03;2.38;;;1.30;;
75379;SDS011;65641;44.714;37.756;2023-12-20T02:31:07;2.78;;;1.10;;
75379;SDS011;65641;44.714;37.756;2023-12-20T02:32:11;2.00;;;1.17;;
75379;SDS011;65641;44.714;37.756;2023-12-20T02:33:14;1.65;;;1.20;;
75379;SDS011;65641;44.714;37.756;2023-12-20T02:34:18;1.45;;;0.63;;
75379;SDS011;65641;44.714;37.756;2023-12-20T02:35:22;2.45;;;0.77;;
75379;SDS011;65641;44.714;37.756;2023-12-20T02:36:25;1.70;;;0.60;;
75379;SDS011;65641;44.714;37.756;2023-12-20T02:37:29;1.85;;;1.00;;
75379;SDS011;65641;44.714;37.756;2023-12-20T02:38:32;1.35;;;0.63;;
75379;SDS011;65641;44.714;37.756;2023-12-20T02:39:36;1.40;;;0.80;;
75379;SDS011;65641;44.714;37.756;2023-12-20T02:40:40;1.17;;;0.52;;
75379;SDS011;65641;44.714;37.756;2023-12-20T02:41:50;1.30;;;0.57;;
75379;SDS011;65641;44.714;37.756;2023-12-20T02:42:54;2.28;;;0.70;;
75379;SDS011;65641;44.714;37.756;2023-12-20T02:43:57;2.47;;;0.80;;
75379;SDS011;65641;44.714;37.756;2023-12-20T02:45:00;1.85;;;0.77;;
75379;SDS011;65641;44.714;37.756;2023-12-20T02:46:06;2.08;;;0.95;;
75379;SDS011;65641;44.714;37.756;2023-12-20T02:47:10;1.48;;;0.73;;
75379;SDS011;65641;44.714;37.756;2023-12-20T02:48:13;1.40;;;0.77;;
75379;SDS011;65641;44.714;37.756;2023-12-20T02:49:17;1.77;;;0.57;;
75379;SDS011;65641;44.714;37.756;2023-12-20T02:50:21;1.73;;;0.88;;
75379;SDS011;65641;44.714;37.756;2023-12-20T02:51:30;1.10;;;0.70;;
75379;SDS011;65641;44.714;37.756;2023-12-20T02:52:34;2.08;;;0.73;;
75379;SDS011;65641;44.714;37.756;2023-12-20T02:53:38;1.85;;;0.95;;
75379;SDS011;65641;44.714;37.756;2023-12-20T02:54:41;1.42;;;0.88;;
75379;SDS011;65641;44.714;37.756;2023-12-20T02:55:45;1.88;;;1.05;;
75379;SDS011;65641;44.714;37.756;2023-12-20T02:56:49;1.38;;;0.77;;
75379;SDS011;65641;44.714;37.756;2023-12-20T02:57:52;1.60;;;0.70;;
75379;SDS011;65641;44.714;37.756;2023-12-20T02:58:56;1.15;;;0.90;;
75379;SDS011;65641;44.714;37.756;2023-12-20T02:59:59;1.67;;;0.70;;
75379;SDS011;65641;44.714;37.756;2023-12-20T03:01:03;1.20;;;0.57;;
75379;SDS011;65641;44.714;37.756;2023-12-20T03:02:06;1.75;;;0.80;;
75379;SDS011;65641;44.714;37.756;2023-12-20T03:03:10;1.20;;;0.68;;
75379;SDS011;65641;44.714;37.756;2023-12-20T03:04:13;2.10;;;0.82;;
75379;SDS011;65641;44.714;37.756;2023-12-20T03:05:17;1.63;;;0.80;;
75379;SDS011;65641;44.714;37.756;2023-12-20T03:06:20;2.47;;;0.90;;
75379;SDS011;65641;44.714;37.756;2023-12-20T03:07:24;1.60;;;0.65;;
75379;SDS011;65641;44.714;37.756;2023-12-20T03:08:27;2.03;;;0.80;;
75379;SDS011;65641;44.714;37.756;2023-12-20T03:09:33;2.13;;;0.73;;
75379;SDS011;65641;44.714;37.756;2023-12-20T03:10:56;2.00;;;0.60;;
75379;SDS011;65641;44.714;37.756;2023-12-20T03:12:02;1.80;;;1.20;;
75379;SDS011;65641;44.714;37.756;2023-12-20T03:13:06;1.15;;;0.60;;
75379;SDS011;65641;44.714;37.756;2023-12-20T03:14:12;1.10;;;0.55;;
75379;SDS011;65641;44.714;37.756;2023-12-20T03:15:15;1.55;;;0.75;;
75379;SDS011;65641;44.714;37.756;2023-12-20T03:16:19;1.48;;;1.05;;
75379;SDS011;65641;44.714;37.756;2023-12-20T03:17:22;1.63;;;0.52;;
75379;SDS011;65641;44.714;37.756;2023-12-20T03:18:26;1.60;;;0.60;;
75379;SDS011;65641;44.714;37.756;2023-12-20T03:19:32;1.65;;;0.73;;
75379;SDS011;65641;44.714;37.756;2023-12-20T03:20:35;1.50;;;0.93;;
75379;SDS011;65641;44.714;37.756;2023-12-20T03:21:38;1.02;;;0.55;;
75379;SDS011;65641;44.714;37.756;2023-12-20T03:22:42;1.55;;;0.90;;
75379;SDS011;65641;44.714;37.756;2023-12-20T03:23:48;1.75;;;0.57;;
75379;SDS011;65641;44.714;37.756;2023-12-20T03:24:51;1.40;;;0.82;;
75379;SDS011;65641;44.714;37.756;2023-12-20T03:25:55;2.20;;;0.80;;
75379;SDS011;65641;44.714;37.756;2023-12-20T03:26:58;1.73;;;0.65;;
75379;SDS011;65641;44.714;37.756;2023-12-20T03:28:03;1.15;;;0.63;;
75379;SDS011;65641;44.714;37.756;2023-12-20T03:29:06;1.40;;;0.70;;
75379;SDS011;65641;44.714;37.756;2023-12-20T03:30:10;1.33;;;0.95;;
75379;SDS011;65641;44.714;37.756;2023-12-20T03:31:13;1.23;;;0.60;;
75379;SDS011;65641;44.714;37.756;2023-12-20T03:32:17;1.48;;;0.60;;
75379;SDS011;65641;44.714;37.756;2023-12-20T03:33:20;1.38;;;0.88;;
75379;SDS011;65641;44.714;37.756;2023-12-20T03:34:24;1.50;;;0.70;;
75379;SDS011;65641;44.714;37.756;2023-12-20T03:35:27;1.40;;;0.43;;
75379;SDS011;65641;44.714;37.756;2023-12-20T03:36:31;1.63;;;0.80;;
75379;SDS011;65641;44.714;37.756;2023-12-20T03:37:34;1.30;;;0.75;;
75379;SDS011;65641;44.714;37.756;2023-12-20T03:38:38;1.35;;;0.63;;
75379;SDS011;65641;44.714;37.756;2023-12-20T03:39:41;1.35;;;0.73;;
75379;SDS011;65641;44.714;37.756;2023-12-20T03:40:45;2.53;;;0.57;;
75379;SDS011;65641;44.714;37.756;2023-12-20T03:41:48;2.25;;;1.35;;
75379;SDS011;65641;44.714;37.756;2023-12-20T03:42:52;1.35;;;0.70;;
75379;SDS011;65641;44.714;37.756;2023-12-20T03:43:55;3.10;;;0.80;;
75379;SDS011;65641;44.714;37.756;2023-12-20T03:44:59;1.65;;;0.80;;
75379;SDS011;65641;44.714;37.756;2023-12-20T03:46:07;2.80;;;1.08;;
75379;SDS011;65641;44.714;37.756;2023-12-20T03:47:11;1.77;;;0.80;;
75379;SDS011;65641;44.714;37.756;2023-12-20T03:48:15;1.70;;;0.68;;
75379;SDS011;65641;44.714;37.756;2023-12-20T03:49:18;2.55;;;0.80;;
75379;SDS011;65641;44.714;37.756;2023-12-20T03:50:22;2.30;;;1.05;;
75379;SDS011;65641;44.714;37.756;2023-12-20T03:51:26;3.25;;;1.33;;
75379;SDS011;65641;44.714;37.756;2023-12-20T03:52:29;3.13;;;1.23;;
75379;SDS011;65641;44.714;37.756;2023-12-20T03:53:32;2.70;;;1.27;;
75379;SDS011;65641;44.714;37.756;2023-12-20T03:54:36;2.17;;;1.00;;
75379;SDS011;65641;44.714;37.756;2023-12-20T03:55:39;2.83;;;1.00;;
75379;SDS011;65641;44.714;37.756;2023-12-20T03:56:44;2.13;;;0.85;;
75379;SDS011;65641;44.714;37.756;2023-12-20T03:57:47;2.55;;;0.82;;
75379;SDS011;65641;44.714;37.756;2023-12-20T03:58:51;1.73;;;0.70;;
75379;SDS011;65641;44.714;37.756;2023-12-20T03:59:54;2.75;;;0.90;;
75379;SDS011;65641;44.714;37.756;2023-12-20T04:00:57;1.95;;;0.80;;
75379;SDS011;65641;44.714;37.756;2023-12-20T04:02:01;1.50;;;0.75;;
75379;SDS011;65641;44.714;37.756;2023-12-20T04:03:05;2.65;;;0.90;;
75379;SDS011;65641;44.714;37.756;2023-12-20T04:04:08;1.80;;;0.60;;
75379;SDS011;65641;44.714;37.756;2023-12-20T04:05:12;2.33;;;0.95;;
75379;SDS011;65641;44.714;37.756;2023-12-20T04:06:16;1.80;;;0.82;;
75379;SDS011;65641;44.714;37.756;2023-12-20T04:07:21;2.72;;;1.10;;
75379;SDS011;65641;44.714;37.756;2023-12-20T04:08:24;2.75;;;0.90;;
75379;SDS011;65641;44.714;37.756;2023-12-20T04:09:28;2.70;;;0.98;;
75379;SDS011;65641;44.714;37.756;2023-12-20T04:10:32;2.65;;;0.88;;
75379;SDS011;65641;44.714;37.756;2023-12-20T04:11:38;2.30;;;0.70;;
75379;SDS011;65641;44.714;37.756;2023-12-20T04:12:42;2.95;;;1.00;;
75379;SDS011;65641;44.714;37.756;2023-12-20T04:13:46;2.85;;;1.13;;
75379;SDS011;65641;44.714;37.756;2023-12-20T04:14:49;2.33;;;0.88;;
75379;SDS011;65641;44.714;37.756;2023-12-20T04:15:53;2.65;;;0.80;;
75379;SDS011;65641;44.714;37.756;2023-12-20T04:16:57;4.28;;;1.08;;
75379;SDS011;65641;44.714;37.756;2023-12-20T04:18:00;3.45;;;1.45;;
75379;SDS011;65641;44.714;37.756;2023-12-20T04:19:04;3.50;;;0.90;;
75379;SDS011;65641;44.714;37.756;2023-12-20T04:20:08;4.20;;;1.08;;
75379;SDS011;65641;44.714;37.756;2023-12-20T04:21:12;2.50;;;1.27;;
75379;SDS011;65641;44.714;37.756;2023-12-20T04:22:16;2.95;;;1.15;;
75379;SDS011;65641;44.714;37.756;2023-12-20T04:23:21;2.00;;;0.95;;
75379;SDS011;65641;44.714;37.756;2023-12-20T04:24:24;3.00;;;1.05;;
75379;SDS011;65641;44.714;37.756;2023-12-20T04:25:28;3.17;;;1.15;;
75379;SDS011;65641;44.714;37.756;2023-12-20T04:26:32;3.22;;;1.25;;
75379;SDS011;65641;44.714;37.756;2023-12-20T04:27:35;6.10;;;1.35;;
75379;SDS011;65641;44.714;37.756;2023-12-20T04:28:39;3.42;;;1.17;;
75379;SDS011;65641;44.714;37.756;2023-12-20T04:29:42;4.00;;;1.20;;
75379;SDS011;65641;44.714;37.756;2023-12-20T04:30:47;4.20;;;0.93;;
75379;SDS011;65641;44.714;37.756;2023-12-20T04:31:50;4.22;;;1.23;;
75379;SDS011;65641;44.714;37.756;2023-12-20T04:32:54;4.47;;;1.15;;
75379;SDS011;65641;44.714;37.756;2023-12-20T04:33:59;3.10;;;1.50;;
75379;SDS011;65641;44.714;37.756;2023-12-20T04:35:05;3.83;;;1.60;;
75379;SDS011;65641;44.714;37.756;2023-12-20T04:36:11;2.90;;;1.00;;
75379;SDS011;65641;44.714;37.756;2023-12-20T04:37:15;2.85;;;1.45;;
75379;SDS011;65641;44.714;37.756;2023-12-20T04:38:18;4.85;;;1.63;;
75379;SDS011;65641;44.714;37.756;2023-12-20T04:39:22;3.40;;;1.30;;
75379;SDS011;65641;44.714;37.756;2023-12-20T04:40:25;4.72;;;1.85;;
75379;SDS011;65641;44.714;37.756;2023-12-20T04:41:29;3.20;;;1.25;;
75379;SDS011;65641;44.714;37.756;2023-12-20T04:42:32;5.22;;;1.67;;
75379;SDS011;65641;44.714;37.756;2023-12-20T04:43:36;3.30;;;1.13;;
75379;SDS011;65641;44.714;37.756;2023-12-20T04:44:40;3.85;;;1.63;;
75379;SDS011;65641;44.714;37.756;2023-12-20T04:45:43;4.80;;;1.40;;
75379;SDS011;65641;44.714;37.756;2023-12-20T04:46:47;3.67;;;1.65;;
75379;SDS011;65641;44.714;37.756;2023-12-20T04:47:51;3.90;;;1.50;;
75379;SDS011;65641;44.714;37.756;2023-12-20T04:48:55;3.40;;;1.50;;
75379;SDS011;65641;44.714;37.756;2023-12-20T04:49:59;3.17;;;1.17;;
75379;SDS011;65641;44.714;37.756;2023-12-20T04:51:10;4.18;;;1.40;;
75379;SDS011;65641;44.714;37.756;2023-12-20T04:52:16;3.72;;;1.75;;
75379;SDS011;65641;44.714;37.756;2023-12-20T04:53:19;5.18;;;1.50;;
75379;SDS011;65641;44.714;37.756;2023-12-20T04:54:23;6.00;;;1.70;;
75379;SDS011;65641;44.714;37.756;2023-12-20T04:55:26;2.78;;;1.05;;
75379;SDS011;65641;44.714;37.756;2023-12-20T04:56:30;5.57;;;1.60;;
75379;SDS011;65641;44.714;37.756;2023-12-20T04:57:34;5.10;;;1.38;;
75379;SDS011;65641;44.714;37.756;2023-12-20T04:58:38;6.15;;;2.05;;
75379;SDS011;65641;44.714;37.756;2023-12-20T04:59:41;2.88;;;1.38;;
75379;SDS011;65641;44.714;37.756;2023-12-20T05:00:45;4.07;;;1.80;;
75379;SDS011;65641;44.714;37.756;2023-12-20T05:01:48;3.92;;;1.20;;
75379;SDS011;65641;44.714;37.756;2023-12-20T05:03:08;3.28;;;1.10;;
75379;SDS011;65641;44.714;37.756;2023-12-20T05:04:12;4.03;;;1.58;;
75379;SDS011;65641;44.714;37.756;2023-12-20T05:05:16;3.97;;;1.25;;
75379;SDS011;65641;44.714;37.756;2023-12-20T05:06:20;4.15;;;1.70;;
75379;SDS011;65641;44.714;37.756;2023-12-20T05:07:24;2.63;;;1.25;;
75379;SDS011;65641;44.714;37.756;2023-12-20T05:08:28;3.40;;;1.27;;
75379;SDS011;65641;44.714;37.756;2023-12-20T05:09:31;2.92;;;1.30;;
75379;SDS011;65641;44.714;37.756;2023-12-20T05:10:35;4.22;;;1.55;;
75379;SDS011;65641;44.714;37.756;2023-12-20T05:11:39;4.95;;;1.40;;
75379;SDS011;65641;44.714;37.756;2023-12-20T05:12:43;3.92;;;1.30;;
75379;SDS011;65641;44.714;37.756;2023-12-20T05:13:47;3.13;;;1.30;;
75379;SDS011;65641;44.714;37.756;2023-12-20T05:14:52;3.75;;;1.42;;
75379;SDS011;65641;44.714;37.756;2023-12-20T05:15:55;3.33;;;1.25;;
75379;SDS011;65641;44.714;37.756;2023-12-20T05:16:59;6.13;;;1.52;;
75379;SDS011;65641;44.714;37.756;2023-12-20T05:18:03;5.13;;;1.70;;
75379;SDS011;65641;44.714;37.756;2023-12-20T05:19:07;3.50;;;1.60;;
75379;SDS011;65641;44.714;37.756;2023-12-20T05:20:11;3.38;;;1.20;;
75379;SDS011;65641;44.714;37.756;2023-12-20T05:21:16;4.72;;;1.55;;
75379;SDS011;65641;44.714;37.756;2023-12-20T05:22:19;4.38;;;1.35;;
75379;SDS011;65641;44.714;37.756;2023-12-20T05:23:25;5.32;;;1.75;;
75379;SDS011;65641;44.714;37.756;2023-12-20T05:24:29;4.68;;;1.92;;
75379;SDS011;65641;44.714;37.756;2023-12-20T05:25:32;3.40;;;1.35;;
75379;SDS011;65641;44.714;37.756;2023-12-20T05:26:36;4.40;;;1.65;;
75379;SDS011;65641;44.714;37.756;2023-12-20T05:27:39;4.68;;;1.52;;
75379;SDS011;65641;44.714;37.756;2023-12-20T05:28:43;3.95;;;1.33;;
75379;SDS011;65641;44.714;37.756;2023-12-20T05:29:47;4.70;;;1.20;;
75379;SDS011;65641;44.714;37.756;2023-12-20T05:30:50;3.22;;;1.80;;
75379;SDS011;65641;44.714;37.756;2023-12-20T05:31:54;3.22;;;1.50;;
75379;SDS011;65641;44.714;37.756;2023-12-20T05:32:57;4.35;;;1.42;;
75379;SDS011;65641;44.714;37.756;2023-12-20T05:34:01;3.72;;;1.65;;
75379;SDS011;65641;44.714;37.756;2023-12-20T05:35:05;3.85;;;1.88;;
75379;SDS011;65641;44.714;37.756;2023-12-20T05:36:09;6.68;;;1.67;;
75379;SDS011;65641;44.714;37.756;2023-12-20T05:37:14;4.13;;;1.30;;
75379;SDS011;65641;44.714;37.756;2023-12-20T05:38:17;4.22;;;1.35;;
75379;SDS011;65641;44.714;37.756;2023-12-20T05:39:21;3.30;;;1.65;;
75379;SDS011;65641;44.714;37.756;2023-12-20T05:40:25;3.83;;;1.50;;
75379;SDS011;65641;44.714;37.756;2023-12-20T05:41:28;4.00;;;1.50;;
75379;SDS011;65641;44.714;37.756;2023-12-20T05:42:34;3.72;;;2.05;;
75379;SDS011;65641;44.714;37.756;2023-12-20T05:43:39;3.80;;;1.20;;
75379;SDS011;65641;44.714;37.756;2023-12-20T05:44:42;4.15;;;1.58;;
75379;SDS011;65641;44.714;37.756;2023-12-20T05:45:49;3.95;;;1.90;;
75379;SDS011;65641;44.714;37.756;2023-12-20T05:46:54;3.28;;;1.48;;
75379;SDS011;65641;44.714;37.756;2023-12-20T05:47:58;3.92;;;1.27;;
75379;SDS011;65641;44.714;37.756;2023-12-20T05:49:01;3.45;;;1.50;;
75379;SDS011;65641;44.714;37.756;2023-12-20T05:50:05;3.13;;;1.20;;
75379;SDS011;65641;44.714;37.756;2023-12-20T05:51:11;6.32;;;1.80;;
75379;SDS011;65641;44.714;37.756;2023-12-20T05:52:18;6.68;;;2.00;;
75379;SDS011;65641;44.714;37.756;2023-12-20T05:53:23;3.00;;;1.73;;
75379;SDS011;65641;44.714;37.756;2023-12-20T05:54:27;2.85;;;1.27;;
75379;SDS011;65641;44.714;37.756;2023-12-20T05:55:31;6.32;;;1.58;;
75379;SDS011;65641;44.714;37.756;2023-12-20T05:56:34;4.90;;;1.50;;
75379;SDS011;65641;44.714;37.756;2023-12-20T05:57:38;4.72;;;1.83;;
75379;SDS011;65641;44.714;37.756;2023-12-20T05:58:42;2.60;;;1.33;;
75379;SDS011;65641;44.714;37.756;2023-12-20T05:59:46;3.30;;;1.27;;
75379;SDS011;65641;44.714;37.756;2023-12-20T06:00:50;6.20;;;1.60;;
75379;SDS011;65641;44.714;37.756;2023-12-20T06:01:53;3.38;;;1.48;;
75379;SDS011;65641;44.714;37.756;2023-12-20T06:02:57;3.45;;;1.60;;
75379;SDS011;65641;44.714;37.756;2023-12-20T06:04:01;3.63;;;1.50;;
75379;SDS011;65641;44.714;37.756;2023-12-20T06:05:07;3.50;;;1.17;;
75379;SDS011;65641;44.714;37.756;2023-12-20T06:06:10;3.53;;;1.48;;
75379;SDS011;65641;44.714;37.756;2023-12-20T06:07:19;4.43;;;1.70;;
75379;SDS011;65641;44.714;37.756;2023-12-20T06:08:23;5.00;;;1.85;;
75379;SDS011;65641;44.714;37.756;2023-12-20T06:09:27;3.83;;;1.60;;
75379;SDS011;65641;44.714;37.756;2023-12-20T06:10:33;3.75;;;1.42;;
75379;SDS011;65641;44.714;37.756;2023-12-20T06:11:37;5.07;;;1.75;;
75379;SDS011;65641;44.714;37.756;2023-12-20T06:12:40;3.55;;;1.63;;
75379;SDS011;65641;44.714;37.756;2023-12-20T06:13:44;4.15;;;1.42;;
75379;SDS011;65641;44.714;37.756;2023-12-20T06:14:48;4.47;;;1.40;;
75379;SDS011;65641;44.714;37.756;2023-12-20T06:15:51;3.80;;;1.10;;
75379;SDS011;65641;44.714;37.756;2023-12-20T06:16:55;3.70;;;1.15;;
75379;SDS011;65641;44.714;37.756;2023-12-20T06:17:58;3.05;;;1.33;;
75379;SDS011;65641;44.714;37.756;2023-12-20T06:19:02;4.28;;;1.83;;
75379;SDS011;65641;44.714;37.756;2023-12-20T06:20:07;3.90;;;1.58;;
75379;SDS011;65641;44.714;37.756;2023-12-20T06:21:14;4.25;;;1.85;;